Time;durP1;ratioP1;P1;durP2;ratioP2;P2;SDS_P1;SDS_P2;PMS_P1;PMS_P2;Temp;Humidity;BMP_temperature;BMP_pressure;BME280_temperature;BME280_humidity;BME280_pressure;Samples;Min_cycle;Max_cycle;Signal;HPM_P1;HPM_P2
2021/03/23 00:00:37;;;;;;;34.38;20.60;;;5.70;99.90;;;;;;5015707;28;20042;-82
2021/03/23 00:03:08;;;;;;;32.92;21.63;;;5.70;99.90;;;;;;5014155;28;20147;-82
2021/03/23 00:05:35;;;;;;;29.52;19.33;;;5.70;99.90;;;;;;5017313;28;20133;-82
2021/03/23 00:08:05;;;;;;;28.35;19.70;;;5.70;99.90;;;;;;5032690;28;20059;-82
2021/03/23 00:10:33;;;;;;;33.53;20.83;;;5.70;99.90;;;;;;5010659;28;20054;-83
2021/03/23 00:13:00;;;;;;;28.58;19.90;;;5.70;99.90;;;;;;5014379;28;20084;-82
2021/03/23 00:15:26;;;;;;;34.13;19.77;;;5.70;99.90;;;;;;5015030;28;20045;-82
2021/03/23 00:17:53;;;;;;;35.42;20.48;;;5.70;99.90;;;;;;5016841;28;20100;-82
2021/03/23 00:20:22;;;;;;;35.13;19.40;;;5.70;99.90;;;;;;5015328;28;20052;-82
2021/03/23 00:22:49;;;;;;;32.72;18.92;;;5.60;99.90;;;;;;5032187;28;20084;-82
2021/03/23 00:25:16;;;;;;;30.15;19.25;;;5.60;99.90;;;;;;5027614;28;20096;-82
2021/03/23 00:27:42;;;;;;;27.83;18.92;;;5.60;99.90;;;;;;5030701;28;20045;-83
2021/03/23 00:30:11;;;;;;;26.63;18.65;;;5.50;99.90;;;;;;5014395;28;20099;-82
2021/03/23 00:32:38;;;;;;;34.70;18.90;;;5.50;99.90;;;;;;5043686;28;20049;-82
2021/03/23 00:35:07;;;;;;;24.23;18.00;;;5.50;99.90;;;;;;5011801;28;20057;-82
2021/03/23 00:37:34;;;;;;;23.38;18.50;;;5.40;99.90;;;;;;5012998;28;20050;-82
2021/03/23 00:40:05;;;;;;;25.55;17.60;;;5.40;99.90;;;;;;5021580;28;20083;-82
2021/03/23 00:42:33;;;;;;;24.08;16.75;;;5.40;99.90;;;;;;5036327;28;20057;-82
2021/03/23 00:44:59;;;;;;;26.95;17.40;;;5.40;99.90;;;;;;5033442;28;20111;-82
2021/03/23 00:47:26;;;;;;;26.55;17.27;;;5.30;99.90;;;;;;5012713;28;20053;-82
2021/03/23 00:49:52;;;;;;;29.27;16.65;;;5.30;99.90;;;;;;5012028;28;20050;-82
2021/03/23 00:52:19;;;;;;;25.42;17.25;;;5.30;99.90;;;;;;5030645;28;20103;-82
2021/03/23 00:54:45;;;;;;;28.58;16.75;;;5.30;99.90;;;;;;5030488;28;20053;-82
2021/03/23 00:57:12;;;;;;;37.63;17.05;;;5.30;99.90;;;;;;5028296;28;20061;-82
2021/03/23 00:59:38;;;;;;;45.10;18.50;;;5.30;99.90;;;;;;5013941;28;20049;-82
2021/03/23 01:02:04;;;;;;;46.05;18.67;;;5.20;99.90;;;;;;5021962;28;20794;-82
2021/03/23 01:04:31;;;;;;;49.53;19.63;;;5.20;99.90;;;;;;5032829;28;20045;-82
2021/03/23 01:07:09;;;;;;;49.88;19.08;;;5.20;99.90;;;;;;5028258;28;20045;-82
2021/03/23 01:09:35;;;;;;;45.05;18.63;;;5.20;99.90;;;;;;5015627;28;20048;-82
2021/03/23 01:12:02;;;;;;;42.03;17.98;;;5.20;99.90;;;;;;5016318;28;20065;-82
2021/03/23 01:14:29;;;;;;;42.92;18.30;;;5.20;99.90;;;;;;5017268;28;20053;-83
2021/03/23 01:16:55;;;;;;;43.80;19.30;;;5.20;99.90;;;;;;5013264;28;20049;-82
2021/03/23 01:19:22;;;;;;;34.80;18.45;;;5.20;99.90;;;;;;5013573;28;20053;-82
2021/03/23 01:21:48;;;;;;;39.55;17.95;;;5.10;99.90;;;;;;5027709;28;20095;-82
2021/03/23 01:24:31;;;;;;;32.72;17.75;;;5.10;99.90;;;;;;5018623;28;20053;-82
2021/03/23 01:27:00;;;;;;;39.22;17.58;;;5.10;99.90;;;;;;5014312;28;20152;-83
2021/03/23 01:29:28;;;;;;;37.47;16.83;;;5.10;99.90;;;;;;5012733;28;20166;-82
2021/03/23 01:31:55;;;;;;;33.83;17.10;;;5.10;99.90;;;;;;5013133;28;20049;-82
2021/03/23 01:34:43;;;;;;;29.77;17.10;;;5.00;99.90;;;;;;5019195;28;20046;-82
2021/03/23 01:37:09;;;;;;;27.25;15.98;;;5.00;99.90;;;;;;5027294;28;20049;-82
2021/03/23 01:39:36;;;;;;;26.45;16.20;;;5.00;99.90;;;;;;5012615;28;20049;-82
2021/03/23 01:42:03;;;;;;;26.48;16.33;;;5.00;99.90;;;;;;5029972;28;20049;-82
2021/03/23 01:44:30;;;;;;;25.20;16.10;;;5.00;99.90;;;;;;5030609;28;20049;-82
2021/03/23 01:46:56;;;;;;;26.83;15.52;;;5.00;99.90;;;;;;5017648;28;20061;-82
2021/03/23 01:49:24;;;;;;;26.05;16.73;;;4.90;99.90;;;;;;5012365;28;20107;-82
2021/03/23 01:51:54;;;;;;;24.77;16.35;;;4.90;99.90;;;;;;5010161;28;20058;-82
2021/03/23 01:54:29;;;;;;;26.40;15.50;;;4.90;99.90;;;;;;5031613;28;20045;-82
2021/03/23 01:57:03;;;;;;;22.90;16.10;;;4.90;99.90;;;;;;5015117;28;20045;-82
2021/03/23 01:59:32;;;;;;;24.98;15.82;;;4.90;99.90;;;;;;5028307;28;20119;-82
2021/03/23 02:02:02;;;;;;;29.70;16.85;;;4.90;99.90;;;;;;5028493;28;20057;-82
2021/03/23 02:04:29;;;;;;;24.90;15.90;;;4.90;99.90;;;;;;5012321;28;20041;-82
2021/03/23 02:06:55;;;;;;;24.90;16.00;;;4.90;99.90;;;;;;5004181;28;20060;-82
2021/03/23 02:09:28;;;;;;;20.90;15.90;;;4.90;99.90;;;;;;5018048;28;20050;-82
2021/03/23 02:12:04;;;;;;;28.23;15.98;;;4.90;99.90;;;;;;5026806;28;20057;-82
2021/03/23 02:14:34;;;;;;;27.02;15.55;;;4.90;99.90;;;;;;5013731;28;20049;-82
2021/03/23 02:17:23;;;;;;;21.02;15.68;;;4.90;99.90;;;;;;5029771;28;20041;-82
2021/03/23 02:19:55;;;;;;;30.90;15.75;;;4.90;99.90;;;;;;5025534;28;20119;-82
2021/03/23 02:22:26;;;;;;;27.05;16.05;;;4.90;99.90;;;;;;5031219;28;20058;-82
2021/03/23 02:24:53;;;;;;;30.40;16.00;;;4.90;99.90;;;;;;5030263;28;20164;-82
2021/03/23 02:27:21;;;;;;;26.58;16.63;;;4.90;99.90;;;;;;5014623;28;20091;-82
2021/03/23 02:29:50;;;;;;;31.47;16.70;;;4.90;99.90;;;;;;5030274;28;20041;-82
2021/03/23 02:32:17;;;;;;;27.05;16.48;;;4.90;99.90;;;;;;5005601;28;20823;-82
2021/03/23 02:34:44;;;;;;;26.67;15.27;;;4.90;99.90;;;;;;5030398;28;20088;-82
2021/03/23 02:37:11;;;;;;;24.45;15.60;;;4.90;99.90;;;;;;5025471;28;20046;-83
2021/03/23 02:39:38;;;;;;;25.73;16.05;;;4.90;99.90;;;;;;5032440;28;20423;-83
2021/03/23 02:42:06;;;;;;;28.85;16.10;;;4.80;99.90;;;;;;5009268;28;20056;-82
2021/03/23 02:44:47;;;;;;;28.17;15.43;;;4.80;99.90;;;;;;5030152;28;20041;-82
2021/03/23 02:47:16;;;;;;;27.05;14.77;;;4.80;99.90;;;;;;5017828;28;20053;-83
2021/03/23 02:49:43;;;;;;;31.50;16.55;;;4.80;99.90;;;;;;4998353;28;20050;-82
2021/03/23 02:52:11;;;;;;;31.35;15.98;;;4.80;99.90;;;;;;5013131;28;20057;-82
2021/03/23 02:54:38;;;;;;;29.90;16.33;;;4.80;99.90;;;;;;5029370;28;20104;-82
2021/03/23 02:57:06;;;;;;;29.63;15.20;;;4.80;99.90;;;;;;5010028;28;20046;-82
2021/03/23 02:59:33;;;;;;;39.70;16.50;;;4.80;99.90;;;;;;5010896;28;20081;-82
2021/03/23 03:02:00;;;;;;;31.08;16.02;;;4.70;99.90;;;;;;5031048;28;20372;-82
2021/03/23 03:04:26;;;;;;;31.13;15.88;;;4.70;99.90;;;;;;5017612;28;20057;-82
2021/03/23 03:06:53;;;;;;;32.92;16.17;;;4.80;99.90;;;;;;5017376;28;20085;-82
2021/03/23 03:09:19;;;;;;;27.00;15.30;;;4.70;99.90;;;;;;5018310;28;20072;-82
2021/03/23 03:11:46;;;;;;;30.95;16.02;;;4.70;99.90;;;;;;5027310;28;20053;-82
2021/03/23 03:14:12;;;;;;;29.85;15.55;;;4.70;99.90;;;;;;5012312;28;20038;-82
2021/03/23 03:16:38;;;;;;;25.98;16.58;;;4.70;99.90;;;;;;5015924;28;20042;-82
2021/03/23 03:19:05;;;;;;;24.52;15.32;;;4.60;99.90;;;;;;5028435;28;20046;-82
2021/03/23 03:21:32;;;;;;;30.70;15.95;;;4.70;99.90;;;;;;5025800;28;20132;-82
2021/03/23 03:23:58;;;;;;;28.63;15.68;;;4.60;99.90;;;;;;5033018;28;20050;-82
2021/03/23 03:26:24;;;;;;;25.35;14.85;;;4.60;99.90;;;;;;5015303;28;20045;-82
2021/03/23 03:28:52;;;;;;;29.17;15.05;;;4.60;99.90;;;;;;5013584;28;20050;-82
2021/03/23 03:31:24;;;;;;;28.77;15.73;;;4.60;99.90;;;;;;5004236;28;20376;-82
2021/03/23 03:33:53;;;;;;;24.70;15.13;;;4.60;99.90;;;;;;5012176;28;20426;-82
2021/03/23 03:36:22;;;;;;;;;;;4.60;99.90;;;;;;5008108;28;20356;-82
2021/03/23 03:38:49;;;;;;;30.80;15.17;;;4.60;99.90;;;;;;5014197;28;19920;-82
2021/03/23 03:41:16;;;;;;;26.60;15.65;;;4.60;99.90;;;;;;5018236;28;20434;-82
2021/03/23 03:43:42;;;;;;;24.38;14.60;;;4.50;99.90;;;;;;5013874;28;20053;-82
2021/03/23 03:46:10;;;;;;;31.38;15.73;;;4.50;99.90;;;;;;5032380;28;20049;-82
2021/03/23 03:48:37;;;;;;;26.00;15.85;;;4.50;99.90;;;;;;5016341;28;20041;-82
2021/03/23 03:51:04;;;;;;;27.10;14.98;;;4.50;99.90;;;;;;5014172;28;20053;-82
2021/03/23 03:53:31;;;;;;;25.63;14.82;;;4.50;99.90;;;;;;5030738;28;20054;-82
2021/03/23 03:55:58;;;;;;;28.55;15.80;;;4.50;99.90;;;;;;5014945;28;20049;-82
2021/03/23 03:58:24;;;;;;;26.27;15.15;;;4.40;99.90;;;;;;5014139;28;20054;-82
2021/03/23 04:00:51;;;;;;;26.65;15.10;;;4.50;99.90;;;;;;5033497;28;20048;-82
2021/03/23 04:03:24;;;;;;;21.38;14.60;;;4.40;99.90;;;;;;5033369;28;20050;-82
2021/03/23 04:05:52;;;;;;;26.50;14.77;;;4.40;99.90;;;;;;5021884;28;20069;-82
2021/03/23 04:08:23;;;;;;;26.15;15.77;;;4.40;99.90;;;;;;5032465;28;20041;-82
2021/03/23 04:10:51;;;;;;;26.10;15.32;;;4.40;99.90;;;;;;5016733;28;20080;-82
2021/03/23 04:13:19;;;;;;;25.42;14.93;;;4.40;99.90;;;;;;5028692;28;20411;-82
2021/03/23 04:15:47;;;;;;;28.50;16.13;;;4.40;99.90;;;;;;5013544;28;20112;-82
2021/03/23 04:18:17;;;;;;;24.27;15.93;;;4.30;99.90;;;;;;5012769;28;20050;-82
2021/03/23 04:20:44;;;;;;;25.70;15.63;;;4.30;99.90;;;;;;5019413;28;20453;-82
2021/03/23 04:23:24;;;;;;;23.75;15.48;;;4.30;99.90;;;;;;5031275;28;20048;-82
2021/03/23 04:25:51;;;;;;;24.17;15.68;;;4.30;99.90;;;;;;5029573;28;20050;-82
2021/03/23 04:28:18;;;;;;;26.98;15.32;;;4.30;99.90;;;;;;5012815;28;20050;-82
2021/03/23 04:30:45;;;;;;;23.42;16.55;;;4.30;99.90;;;;;;5012006;28;21018;-82
2021/03/23 04:33:12;;;;;;;26.15;15.43;;;4.30;99.90;;;;;;5028208;28;20057;-82
2021/03/23 04:35:44;;;;;;;32.45;16.80;;;4.30;99.90;;;;;;5017150;28;20100;-82
2021/03/23 04:38:17;;;;;;;24.50;16.15;;;4.30;99.90;;;;;;5011346;28;20057;-82
2021/03/23 04:40:44;;;;;;;25.45;16.35;;;4.20;99.90;;;;;;5024690;28;20540;-82
2021/03/23 04:43:24;;;;;;;23.38;16.15;;;4.20;99.90;;;;;;5014573;28;20053;-82
2021/03/23 04:45:51;;;;;;;24.17;16.50;;;4.20;99.90;;;;;;5028345;28;20076;-81
2021/03/23 04:48:17;;;;;;;25.25;14.88;;;4.10;99.90;;;;;;5025964;28;20060;-82
2021/03/23 04:50:44;;;;;;;29.00;16.10;;;4.10;99.90;;;;;;5013582;28;20053;-82
2021/03/23 04:53:32;;;;;;;24.42;15.68;;;4.10;99.90;;;;;;5013180;28;20049;-82
2021/03/23 04:56:00;;;;;;;27.75;15.95;;;4.10;99.90;;;;;;5013217;28;20061;-82
2021/03/23 04:58:28;;;;;;;21.80;15.15;;;4.10;99.90;;;;;;5031752;28;20061;-82
2021/03/23 05:00:56;;;;;;;23.93;15.73;;;4.00;99.90;;;;;;5031173;28;20049;-82
2021/03/23 05:03:30;;;;;;;23.80;15.23;;;4.00;99.90;;;;;;5015270;28;20045;-82
2021/03/23 05:06:07;;;;;;;25.88;16.80;;;4.00;99.90;;;;;;5019203;28;20055;-82
2021/03/23 05:08:37;;;;;;;25.08;15.27;;;4.00;99.90;;;;;;5031600;28;20056;-81
2021/03/23 05:11:06;;;;;;;21.25;16.00;;;3.90;99.90;;;;;;5025139;28;20114;-82
2021/03/23 05:13:32;;;;;;;23.27;15.85;;;3.90;99.90;;;;;;5030780;28;20058;-82
2021/03/23 05:15:59;;;;;;;26.35;15.95;;;3.90;99.90;;;;;;5031343;28;20057;-82
2021/03/23 05:18:26;;;;;;;24.50;15.85;;;3.90;99.90;;;;;;5010377;28;20056;-82
2021/03/23 05:20:53;;;;;;;24.88;16.73;;;3.90;99.90;;;;;;5011487;28;20491;-82
2021/03/23 05:23:19;;;;;;;28.20;16.15;;;3.90;99.90;;;;;;5015083;28;20046;-82
2021/03/23 05:25:46;;;;;;;23.42;15.43;;;3.90;99.90;;;;;;5015914;28;20049;-82
2021/03/23 05:28:14;;;;;;;27.75;17.80;;;3.90;99.90;;;;;;5001354;28;20065;-82
2021/03/23 05:30:42;;;;;;;27.55;16.48;;;3.80;99.90;;;;;;5025050;28;20132;-82
2021/03/23 05:33:10;;;;;;;33.25;17.25;;;3.80;99.90;;;;;;5010291;28;20057;-82
2021/03/23 05:35:37;;;;;;;33.85;17.02;;;3.80;99.90;;;;;;5032151;28;20076;-82
2021/03/23 05:38:04;;;;;;;33.25;18.25;;;3.80;99.90;;;;;;5014416;28;20050;-81
2021/03/23 05:40:35;;;;;;;30.90;17.73;;;3.80;99.90;;;;;;5016650;28;20046;-82
2021/03/23 05:43:29;;;;;;;37.42;17.77;;;3.80;99.90;;;;;;5011612;28;20053;-82
2021/03/23 05:46:36;;;;;;;29.73;18.92;;;3.80;99.90;;;;;;5011357;28;20048;-82
2021/03/23 05:49:25;;;;;;;32.60;18.08;;;3.80;99.90;;;;;;4951162;28;20378;-81
2021/03/23 05:52:16;;;;;;;30.77;17.83;;;3.80;99.90;;;;;;4934290;29;20054;-81
2021/03/23 05:54:55;;;;;;;27.80;17.70;;;3.80;99.90;;;;;;4950705;28;20075;-82
2021/03/23 05:57:25;;;;;;;34.17;18.33;;;3.80;99.90;;;;;;4941381;28;20047;-82
2021/03/23 06:00:00;;;;;;;29.40;17.50;;;3.80;99.90;;;;;;4948745;28;20051;-82
2021/03/23 06:02:29;;;;;;;25.88;18.17;;;3.70;99.90;;;;;;4934749;28;20114;-82
2021/03/23 06:05:14;;;;;;;35.47;19.17;;;3.80;99.90;;;;;;4950774;28;20171;-82
2021/03/23 06:07:40;;;;;;;33.55;19.92;;;3.80;99.90;;;;;;4957102;28;20074;-82
2021/03/23 06:10:16;;;;;;;33.65;19.13;;;3.80;99.90;;;;;;4932611;29;20047;-81
2021/03/23 06:12:55;;;;;;;31.92;18.65;;;3.70;99.90;;;;;;4933812;29;20040;-82
2021/03/23 06:15:31;;;;;;;29.98;19.23;;;3.70;99.90;;;;;;4950033;28;20051;-82
2021/03/23 06:18:25;;;;;;;32.35;19.40;;;3.70;99.90;;;;;;4935551;29;20079;-81
2021/03/23 06:20:58;;;;;;;41.40;20.83;;;3.70;99.90;;;;;;4950719;28;20485;-81
2021/03/23 06:23:46;;;;;;;32.80;19.30;;;3.70;99.90;;;;;;4951784;29;20043;-82
2021/03/23 06:26:49;;;;;;;32.80;20.73;;;3.70;99.90;;;;;;4990725;28;20100;-81
2021/03/23 06:29:26;;;;;;;37.70;19.40;;;3.70;99.90;;;;;;5015976;28;20140;-82
2021/03/23 06:32:25;;;;;;;32.75;20.45;;;3.80;99.90;;;;;;5024325;28;20495;-81
2021/03/23 06:34:53;;;;;;;;;;;3.80;99.90;;;;;;5028302;28;20053;-82
2021/03/23 06:37:24;;;;;;;30.10;18.65;;;3.80;99.90;;;;;;5014975;28;19925;-81
2021/03/23 06:39:51;;;;;;;37.65;20.48;;;3.80;99.90;;;;;;5017189;28;20430;-82
2021/03/23 06:42:39;;;;;;;35.65;20.50;;;3.80;99.90;;;;;;5034244;28;20107;-82
2021/03/23 06:45:08;;;;;;;32.78;19.83;;;3.90;99.90;;;;;;5032048;28;20124;-82
2021/03/23 06:47:38;;;;;;;34.63;20.33;;;3.90;99.90;;;;;;5032298;28;20072;-81
2021/03/23 06:50:26;;;;;;;43.35;21.13;;;3.90;99.90;;;;;;5033209;28;20096;-82
2021/03/23 06:53:15;;;;;;;35.80;20.27;;;4.00;99.90;;;;;;5014688;28;20061;-82
2021/03/23 06:55:45;;;;;;;35.35;20.77;;;4.10;99.90;;;;;;5010681;28;20041;-82
2021/03/23 06:58:25;;;;;;;37.80;20.77;;;4.20;99.90;;;;;;5016131;28;20077;-82
2021/03/23 07:01:10;;;;;;;36.75;19.98;;;4.30;99.90;;;;;;5031224;28;20046;-81
2021/03/23 07:03:38;;;;;;;32.42;19.80;;;4.40;99.90;;;;;;5025698;28;20049;-82
2021/03/23 07:06:20;;;;;;;36.23;18.60;;;4.40;99.90;;;;;;5015183;28;20115;-82
2021/03/23 07:09:21;;;;;;;31.98;19.35;;;4.50;99.90;;;;;;5012699;28;20065;-82
2021/03/23 07:11:52;;;;;;;33.88;19.67;;;4.60;99.90;;;;;;5026199;28;20049;-82
2021/03/23 07:14:40;;;;;;;34.70;20.48;;;4.70;99.90;;;;;;5017337;28;20049;-82
2021/03/23 07:17:10;;;;;;;35.60;18.77;;;4.80;99.90;;;;;;5031579;28;20061;-82
2021/03/23 07:19:47;;;;;;;42.45;19.70;;;4.80;99.90;;;;;;5029282;28;20104;-82
2021/03/23 07:22:37;;;;;;;32.75;19.15;;;4.90;99.90;;;;;;5027188;28;20058;-82
2021/03/23 07:25:26;;;;;;;32.40;19.35;;;5.00;99.90;;;;;;4999312;28;20050;-82
2021/03/23 07:28:24;;;;;;;33.95;18.92;;;5.10;99.90;;;;;;5005636;28;20100;-82
2021/03/23 07:31:06;;;;;;;31.40;18.30;;;5.20;99.90;;;;;;5026348;28;20060;-82
2021/03/23 07:34:03;;;;;;;35.22;18.75;;;5.30;99.90;;;;;;5013358;28;20045;-82
2021/03/23 07:36:47;;;;;;;29.98;17.55;;;5.40;99.90;;;;;;5012391;28;20046;-82
2021/03/23 07:39:30;;;;;;;34.13;17.75;;;5.50;99.90;;;;;;5013921;28;20049;-81
2021/03/23 07:42:04;;;;;;;31.48;18.10;;;5.60;99.90;;;;;;5043916;28;20566;-82
2021/03/23 07:44:39;;;;;;;29.60;17.17;;;5.70;99.90;;;;;;5015246;28;20044;-82
2021/03/23 07:47:36;;;;;;;28.40;16.98;;;5.80;99.90;;;;;;5027096;28;20058;-81
2021/03/23 07:50:29;;;;;;;30.45;17.85;;;5.90;99.90;;;;;;5013875;28;20060;-82
2021/03/23 07:53:14;;;;;;;32.72;16.17;;;6.00;99.90;;;;;;5014613;28;20116;-82
2021/03/23 07:55:41;;;;;;;26.88;17.13;;;6.10;99.90;;;;;;5015916;28;20461;-82
2021/03/23 07:58:20;;;;;;;30.92;17.27;;;6.30;99.90;;;;;;5010877;28;20487;-82
2021/03/23 08:01:08;;;;;;;31.05;16.92;;;6.40;99.90;;;;;;5009835;28;20050;-82
2021/03/23 08:03:56;;;;;;;28.42;16.63;;;6.50;99.90;;;;;;5032862;28;20099;-82
2021/03/23 08:06:38;;;;;;;26.38;16.70;;;6.60;99.90;;;;;;5031700;28;20038;-82
2021/03/23 08:09:41;;;;;;;26.15;15.95;;;6.80;99.90;;;;;;5016939;28;20049;-82
2021/03/23 08:12:38;;;;;;;30.13;16.25;;;6.90;99.90;;;;;;5024498;28;20057;-82
2021/03/23 08:15:14;;;;;;;26.27;15.45;;;7.10;99.90;;;;;;5012012;28;20431;-82
2021/03/23 08:18:04;;;;;;;28.73;15.80;;;7.20;99.90;;;;;;5020488;28;20053;-82
2021/03/23 08:20:52;;;;;;;29.08;16.75;;;7.40;99.90;;;;;;5018672;28;20069;-82
2021/03/23 08:23:56;;;;;;;26.80;16.17;;;7.50;99.90;;;;;;5006127;28;20049;-82
2021/03/23 08:26:28;;;;;;;26.55;14.93;;;7.60;99.90;;;;;;4999565;28;20045;-82
2021/03/23 08:29:06;;;;;;;22.45;14.70;;;7.80;99.90;;;;;;5014240;28;20045;-82
2021/03/23 08:31:51;;;;;;;23.50;14.43;;;7.90;99.90;;;;;;5022027;28;20452;-82
2021/03/23 08:34:24;;;;;;;21.90;13.75;;;8.00;99.90;;;;;;5011239;28;20364;-81
2021/03/23 08:37:24;;;;;;;23.52;13.70;;;8.20;99.90;;;;;;5010064;28;20052;-82
2021/03/23 08:40:14;;;;;;;22.45;14.68;;;8.30;99.90;;;;;;5016713;28;20053;-82
2021/03/23 08:42:45;;;;;;;22.52;14.27;;;8.50;99.90;;;;;;5011625;28;20045;-82
2021/03/23 08:45:19;;;;;;;27.55;14.65;;;8.60;99.90;;;;;;5014828;28;20088;-82
2021/03/23 08:47:53;;;;;;;21.67;13.93;;;8.70;99.90;;;;;;5029460;28;20442;-82
2021/03/23 08:50:34;;;;;;;21.38;13.98;;;8.90;99.90;;;;;;4999295;28;20550;-83
2021/03/23 08:53:04;;;;;;;24.85;13.85;;;9.00;99.90;;;;;;5011750;28;20104;-82
2021/03/23 08:55:31;;;;;;;23.20;13.63;;;9.10;99.90;;;;;;5017931;28;20049;-82
2021/03/23 08:58:03;;;;;;;21.50;13.32;;;9.20;99.90;;;;;;5012606;28;20059;-82
2021/03/23 09:00:36;;;;;;;24.35;13.73;;;9.30;99.90;;;;;;5014982;28;20069;-82
2021/03/23 09:03:10;;;;;;;20.98;12.30;;;9.50;99.90;;;;;;5014687;28;20103;-82
2021/03/23 09:05:39;;;;;;;28.65;13.82;;;9.60;99.90;;;;;;5031743;28;20054;-82
2021/03/23 09:08:21;;;;;;;21.75;12.82;;;9.70;99.90;;;;;;5031158;28;20054;-82
2021/03/23 09:10:51;;;;;;;23.30;12.20;;;9.80;99.90;;;;;;5021866;28;20397;-82
2021/03/23 09:13:45;;;;;;;22.77;11.75;;;9.90;99.90;;;;;;5011992;28;20045;-82
2021/03/23 09:16:11;;;;;;;21.58;11.98;;;10.00;99.90;;;;;;4998436;28;20391;-82
2021/03/23 09:19:08;;;;;;;21.83;13.52;;;10.20;99.90;;;;;;5006959;28;20061;-82
2021/03/23 09:21:56;;;;;;;19.88;12.00;;;10.30;99.90;;;;;;5024204;28;20049;-82
2021/03/23 09:24:29;;;;;;;18.92;12.50;;;10.40;99.90;;;;;;5019831;28;20132;-81
2021/03/23 09:26:56;;;;;;;22.15;12.13;;;10.50;99.90;;;;;;5014765;28;20483;-82
2021/03/23 09:29:39;;;;;;;17.38;11.60;;;10.60;99.90;;;;;;5020615;28;20084;-81
2021/03/23 09:32:07;;;;;;;16.55;11.90;;;10.80;99.90;;;;;;5011456;28;20479;-82
2021/03/23 09:35:06;;;;;;;21.38;11.20;;;10.90;99.90;;;;;;5031800;28;20049;-82
2021/03/23 09:37:40;;;;;;;16.38;10.63;;;11.00;99.90;;;;;;5028882;28;20053;-81
2021/03/23 09:40:24;;;;;;;18.58;11.25;;;11.00;99.90;;;;;;5025049;28;20042;-82
2021/03/23 09:43:03;;;;;;;16.13;10.13;;;11.10;99.90;;;;;;5021610;28;20053;-82
2021/03/23 09:45:49;;;;;;;17.17;10.82;;;11.20;99.90;;;;;;5012667;28;20463;-82
2021/03/23 09:48:15;;;;;;;16.05;10.63;;;11.30;99.90;;;;;;5011809;28;20045;-82
2021/03/23 09:50:58;;;;;;;16.98;9.98;;;11.30;99.90;;;;;;5013550;28;20041;-82
2021/03/23 09:53:36;;;;;;;19.70;10.35;;;11.40;99.90;;;;;;5022222;28;20132;-82
2021/03/23 09:56:07;;;;;;;17.58;10.02;;;11.40;99.90;;;;;;4997029;28;20526;-82
2021/03/23 09:58:33;;;;;;;18.58;10.27;;;11.50;99.90;;;;;;5028253;28;20049;-82
2021/03/23 10:01:15;;;;;;;16.52;9.55;;;11.50;99.90;;;;;;5013648;28;20049;-82
2021/03/23 10:03:45;;;;;;;18.00;9.65;;;11.50;99.90;;;;;;5010549;28;20046;-82
2021/03/23 10:06:22;;;;;;;;;;;11.60;99.90;;;;;;5033475;28;20128;-82
2021/03/23 10:08:50;;;;;;;22.05;10.43;;;11.60;99.90;;;;;;5030123;28;19952;-82
2021/03/23 10:11:18;;;;;;;15.70;9.55;;;11.70;99.90;;;;;;5028316;28;20046;-82
2021/03/23 10:13:51;;;;;;;18.17;9.85;;;11.70;99.90;;;;;;5029993;28;20079;-82
2021/03/23 10:16:28;;;;;;;16.83;10.45;;;11.80;99.90;;;;;;5015792;28;20046;-82
2021/03/23 10:19:05;;;;;;;16.02;9.65;;;11.90;99.90;;;;;;5013887;28;20060;-83
2021/03/23 10:21:34;;;;;;;16.95;8.95;;;12.00;99.90;;;;;;5031490;28;20042;-82
2021/03/23 10:24:12;;;;;;;17.23;9.88;;;12.10;99.90;;;;;;5023849;28;20129;-82
2021/03/23 10:26:42;;;;;;;20.75;9.95;;;12.10;99.90;;;;;;5033438;28;20096;-82
2021/03/23 10:29:27;;;;;;;17.10;10.30;;;12.20;99.90;;;;;;5015161;28;20056;-82
2021/03/23 10:31:57;;;;;;;15.80;9.70;;;12.20;99.90;;;;;;5034614;28;20145;-82
2021/03/23 10:34:27;;;;;;;17.10;10.10;;;12.30;99.90;;;;;;5029086;28;20052;-82
2021/03/23 10:37:00;;;;;;;20.13;10.80;;;12.40;99.90;;;;;;5029189;28;20092;-82
2021/03/23 10:39:42;;;;;;;18.50;10.48;;;12.50;99.90;;;;;;5033820;28;20041;-80
2021/03/23 10:42:30;;;;;;;21.00;10.45;;;12.50;99.90;;;;;;5025124;28;20041;-80
2021/03/23 10:45:23;;;;;;;18.95;11.48;;;12.50;99.90;;;;;;5031180;28;20107;-82
2021/03/23 10:48:02;;;;;;;21.73;10.23;;;12.60;99.90;;;;;;5020569;28;20390;-82
2021/03/23 10:50:31;;;;;;;16.15;9.02;;;12.70;99.90;;;;;;5019349;28;20391;-83
2021/03/23 10:53:20;;;;;;;16.83;8.93;;;12.70;99.90;;;;;;5001244;28;20058;-82
2021/03/23 10:55:49;;;;;;;18.08;9.85;;;12.80;99.90;;;;;;5030685;28;20056;-82
2021/03/23 10:58:21;;;;;;;19.42;9.80;;;12.80;99.90;;;;;;5030121;28;20045;-80
2021/03/23 11:01:16;;;;;;;16.27;9.45;;;12.90;99.90;;;;;;5017181;28;20057;-82
2021/03/23 11:03:45;;;;;;;14.25;8.60;;;13.00;99.90;;;;;;5015862;28;20057;-82
2021/03/23 11:06:34;;;;;;;15.27;9.00;;;13.00;99.90;;;;;;5024856;28;20050;-82
2021/03/23 11:09:07;;;;;;;16.25;9.70;;;13.10;99.90;;;;;;5031923;28;20050;-80
2021/03/23 11:11:34;;;;;;;14.63;9.70;;;13.20;99.90;;;;;;5015550;28;20065;-80
2021/03/23 11:14:01;;;;;;;17.45;8.70;;;13.10;99.90;;;;;;5033110;28;20037;-83
2021/03/23 11:16:32;;;;;;;18.13;8.90;;;13.20;99.90;;;;;;5032023;28;20045;-80
2021/03/23 11:19:06;;;;;;;17.40;9.15;;;13.20;99.90;;;;;;5015159;28;20069;-82
2021/03/23 11:21:36;;;;;;;16.35;8.52;;;13.20;99.90;;;;;;5035542;28;20112;-82
2021/03/23 11:24:05;;;;;;;18.98;8.65;;;13.10;99.90;;;;;;5013783;28;20057;-80
2021/03/23 11:26:32;;;;;;;12.30;7.82;;;13.10;99.90;;;;;;5016619;28;20042;-81
2021/03/23 11:29:03;;;;;;;15.65;8.45;;;13.10;99.90;;;;;;5024866;28;20132;-82
2021/03/23 11:31:33;;;;;;;14.32;8.57;;;13.10;99.90;;;;;;5016043;28;20037;-80
2021/03/23 11:34:02;;;;;;;19.00;8.57;;;13.10;99.90;;;;;;5030518;28;20049;-80
2021/03/23 11:36:29;;;;;;;19.33;8.77;;;13.10;99.90;;;;;;5011269;28;20037;-80
2021/03/23 11:38:57;;;;;;;15.88;8.52;;;13.10;99.90;;;;;;5010084;28;20054;-80
2021/03/23 11:41:34;;;;;;;16.02;8.57;;;13.10;99.90;;;;;;5015412;28;20040;-80
2021/03/23 11:44:25;;;;;;;15.65;8.00;;;13.10;99.90;;;;;;5012636;28;20053;-80
2021/03/23 11:46:57;;;;;;;14.63;8.15;;;13.20;99.90;;;;;;5030500;28;20115;-80
2021/03/23 11:49:43;;;;;;;19.15;9.50;;;13.20;99.90;;;;;;5028732;28;20053;-80
2021/03/23 11:52:10;;;;;;;16.70;7.78;;;13.20;99.90;;;;;;5031440;28;20111;-80
2021/03/23 11:54:36;;;;;;;19.08;8.05;;;13.20;99.90;;;;;;5025376;28;20738;-80
2021/03/23 11:57:04;;;;;;;15.30;8.27;;;13.20;99.90;;;;;;5024495;28;20053;-80
2021/03/23 11:59:30;;;;;;;13.77;8.10;;;13.20;99.90;;;;;;5013117;28;20049;-80
2021/03/23 12:01:57;;;;;;;16.27;7.53;;;13.30;99.90;;;;;;5013641;28;20045;-82
2021/03/23 12:04:24;;;;;;;16.17;8.98;;;13.30;99.90;;;;;;5016042;28;20048;-81
2021/03/23 12:07:12;;;;;;;15.27;9.90;;;13.20;99.90;;;;;;5015837;28;20057;-80
2021/03/23 12:09:48;;;;;;;18.02;9.52;;;13.20;99.90;;;;;;5008696;28;20431;-81
2021/03/23 12:12:38;;;;;;;20.35;10.32;;;13.10;99.90;;;;;;5023170;28;20049;-81
2021/03/23 12:15:13;;;;;;;14.63;8.27;;;13.10;99.90;;;;;;5021439;28;20127;-81
2021/03/23 12:17:45;;;;;;;14.85;8.77;;;13.20;99.90;;;;;;5015516;28;20104;-81
2021/03/23 12:20:19;;;;;;;16.30;8.27;;;13.20;99.90;;;;;;5011801;28;20351;-81
2021/03/23 12:22:47;;;;;;;16.73;8.75;;;13.30;99.90;;;;;;5018221;28;20513;-81
2021/03/23 12:25:15;;;;;;;14.80;8.20;;;13.40;99.90;;;;;;5029014;28;20053;-80
2021/03/23 12:27:42;;;;;;;18.42;9.55;;;13.40;99.90;;;;;;5015406;28;20056;-80
2021/03/23 12:30:09;;;;;;;18.92;8.70;;;13.40;99.90;;;;;;5016719;28;20041;-80
2021/03/23 12:32:36;;;;;;;17.00;8.77;;;13.30;99.90;;;;;;5019472;28;20079;-80
2021/03/23 12:35:08;;;;;;;14.23;8.30;;;13.30;99.90;;;;;;5012825;28;20390;-83
2021/03/23 12:37:36;;;;;;;17.27;8.27;;;13.30;99.90;;;;;;5003994;28;20475;-80
2021/03/23 12:40:06;;;;;;;17.90;7.80;;;13.40;99.90;;;;;;5020468;28;20479;-82
2021/03/23 12:42:33;;;;;;;18.42;8.88;;;13.40;99.90;;;;;;5014764;28;20395;-80
2021/03/23 12:45:01;;;;;;;12.68;8.13;;;13.40;99.90;;;;;;5010197;28;20402;-82
2021/03/23 12:47:28;;;;;;;19.08;8.18;;;13.50;99.90;;;;;;5014799;28;20372;-82
2021/03/23 12:49:55;;;;;;;15.35;8.40;;;13.50;99.90;;;;;;5016690;28;20050;-80
2021/03/23 12:52:22;;;;;;;13.30;8.20;;;13.50;99.90;;;;;;5031371;28;20099;-83
2021/03/23 12:54:56;;;;;;;15.93;8.23;;;13.60;99.90;;;;;;4997140;28;20052;-83
2021/03/23 12:57:24;;;;;;;11.73;7.47;;;13.60;99.90;;;;;;5003456;28;20046;-81
2021/03/23 12:59:53;;;;;;;18.75;7.82;;;13.60;99.90;;;;;;5029944;28;20053;-81
2021/03/23 13:02:22;;;;;;;14.43;7.38;;;13.60;99.90;;;;;;5016613;28;20053;-81
2021/03/23 13:04:49;;;;;;;13.93;7.78;;;13.60;99.90;;;;;;5012558;28;20582;-81
2021/03/23 13:07:28;;;;;;;13.93;8.43;;;13.50;99.90;;;;;;5030309;28;20119;-80
2021/03/23 13:09:54;;;;;;;17.65;8.55;;;13.50;99.90;;;;;;5015223;28;20140;-81